Time;durP1;ratioP1;P1;durP2;ratioP2;P2;SDS_P1;SDS_P2;PMS_P1;PMS_P2;Temp;Humidity;BMP_temperature;BMP_pressure;BME280_temperature;BME280_humidity;BME280_pressure;Samples;Min_cycle;Max_cycle;Signal;HPM_P1;HPM_P2
2023/11/05 00:01:52;;;;;;;3.40;1.53;;;;;;;;;;5099254;28;20486;-65
2023/11/05 00:04:20;;;;;;;5.13;1.03;;;;;;;;;;5095942;28;20545;-65
2023/11/05 00:06:47;;;;;;;3.00;1.47;;;;;;;;;;5095682;28;20450;-67
2023/11/05 00:09:13;;;;;;;3.90;1.70;;;;;;;;;;5090597;28;20462;-67
2023/11/05 00:11:41;;;;;;;3.07;1.43;;;;;;;;;;5100753;28;20462;-65
2023/11/05 00:14:07;;;;;;;3.03;1.20;;;;;;;;;;5110013;28;20538;-65
2023/11/05 00:16:34;;;;;;;2.40;1.27;;;;;;;;;;5096969;28;20543;-65
2023/11/05 00:19:00;;;;;;;2.13;1.30;;;;;;;;;;5106499;28;20523;-66
2023/11/05 00:21:28;;;;;;;2.27;1.40;;;;;;;;;;5097513;28;20457;-65
2023/11/05 00:23:54;;;;;;;1.70;1.33;;;;;;;;;;5100772;28;20974;-66
2023/11/05 00:26:20;;;;;;;2.30;1.17;;;;;;;;;;5110212;28;21055;-65
2023/11/05 00:28:47;;;;;;;2.30;0.97;;;;;;;;;;5113229;28;20545;-65
2023/11/05 00:31:14;;;;;;;6.13;1.50;;;;;;;;;;5102503;28;20537;-65
2023/11/05 00:33:40;;;;;;;4.63;1.17;;;;;;;;;;5104268;28;20459;-66
2023/11/05 00:36:09;;;;;;;3.80;1.87;;;;;;;;;;5094596;28;20538;-65
2023/11/05 00:38:37;;;;;;;3.93;1.80;;;;;;;;;;5095145;28;20475;-67
2023/11/05 00:41:04;;;;;;;1.63;0.90;;;;;;;;;;5102214;28;20447;-66
2023/11/05 00:43:30;;;;;;;5.73;1.47;;;;;;;;;;5113530;28;20456;-66
2023/11/05 00:45:57;;;;;;;1.90;1.30;;;;;;;;;;5102525;28;20537;-64
2023/11/05 00:48:23;;;;;;;1.30;1.20;;;;;;;;;;5110804;28;20488;-65
2023/11/05 00:50:50;;;;;;;1.20;1.00;;;;;;;;;;5109322;28;20858;-65
2023/11/05 00:53:16;;;;;;;2.77;1.20;;;;;;;;;;5103084;28;20487;-66
2023/11/05 00:55:44;;;;;;;3.17;1.17;;;;;;;;;;5097818;28;20446;-65
2023/11/05 00:58:10;;;;;;;1.90;1.10;;;;;;;;;;5101646;28;20476;-65
2023/11/05 01:00:37;;;;;;;3.67;3.00;;;;;;;;;;5106489;28;20541;-65
2023/11/05 01:03:03;;;;;;;2.73;1.30;;;;;;;;;;5102439;28;21073;-65
2023/11/05 01:05:29;;;;;;;2.90;1.40;;;;;;;;;;5095649;28;20480;-65
2023/11/05 01:07:56;;;;;;;3.20;1.47;;;;;;;;;;5111770;28;20520;-65
2023/11/05 01:10:22;;;;;;;2.47;1.30;;;;;;;;;;5096396;28;20554;-65
2023/11/05 01:12:50;;;;;;;3.60;1.43;;;;;;;;;;5103388;28;20541;-65
2023/11/05 01:15:16;;;;;;;1.57;1.40;;;;;;;;;;5104865;28;20461;-65
2023/11/05 01:17:43;;;;;;;6.13;1.40;;;;;;;;;;5094066;28;20551;-64
2023/11/05 01:20:10;;;;;;;1.67;1.07;;;;;;;;;;5099694;28;20902;-64
2023/11/05 01:22:36;;;;;;;2.60;1.40;;;;;;;;;;5100978;28;21054;-64
2023/11/05 01:25:03;;;;;;;1.70;1.30;;;;;;;;;;5093190;28;20530;-64
2023/11/05 01:27:29;;;;;;;1.40;1.30;;;;;;;;;;5091934;28;20488;-65
2023/11/05 01:29:58;;;;;;;1.80;1.20;;;;;;;;;;5100171;28;20447;-65
2023/11/05 01:32:25;;;;;;;5.80;1.07;;;;;;;;;;5093073;28;20546;-65
2023/11/05 01:34:51;;;;;;;4.73;0.90;;;;;;;;;;5104858;28;20456;-65
2023/11/05 01:37:17;;;;;;;4.70;1.30;;;;;;;;;;5109324;28;20895;-65
2023/11/05 01:39:44;;;;;;;2.80;1.60;;;;;;;;;;5096047;28;20466;-65
2023/11/05 01:42:10;;;;;;;1.50;1.30;;;;;;;;;;5101937;28;20486;-67
2023/11/05 01:44:37;;;;;;;5.30;1.33;;;;;;;;;;5090935;28;20479;-65
2023/11/05 01:47:05;;;;;;;2.70;1.30;;;;;;;;;;5105235;28;20526;-66
2023/11/05 01:49:31;;;;;;;3.90;1.10;;;;;;;;;;5107825;28;20507;-65
2023/11/05 01:51:58;;;;;;;2.70;1.90;;;;;;;;;;5094621;28;20515;-65
2023/11/05 01:54:25;;;;;;;3.07;1.90;;;;;;;;;;5106422;28;20480;-65
2023/11/05 01:56:51;;;;;;;5.80;2.20;;;;;;;;;;5109940;28;20865;-64
2023/11/05 01:59:17;;;;;;;2.57;1.53;;;;;;;;;;5108540;28;20542;-65
2023/11/05 02:01:45;;;;;;;3.23;1.87;;;;;;;;;;5094306;28;20474;-64
2023/11/05 02:04:13;;;;;;;2.83;1.20;;;;;;;;;;5100815;28;20478;-64
2023/11/05 02:06:39;;;;;;;3.63;1.70;;;;;;;;;;5098690;28;20946;-65
2023/11/05 02:09:06;;;;;;;7.30;1.87;;;;;;;;;;5088633;28;20543;-64
2023/11/05 02:11:32;;;;;;;2.40;1.40;;;;;;;;;;5101593;28;21174;-65
2023/11/05 02:13:59;;;;;;;4.50;1.83;;;;;;;;;;5099838;28;20463;-65
2023/11/05 02:16:31;;;;;;;3.13;1.60;;;;;;;;;;5111772;28;20848;-64
2023/11/05 02:18:57;;;;;;;2.70;1.13;;;;;;;;;;5102809;28;20845;-64
2023/11/05 02:21:26;;;;;;;5.70;1.57;;;;;;;;;;5106438;28;20565;-64
2023/11/05 02:23:54;;;;;;;4.43;1.97;;;;;;;;;;5103558;28;20506;-64
2023/11/05 02:26:20;;;;;;;3.97;1.60;;;;;;;;;;5104200;28;20566;-65
2023/11/05 02:28:47;;;;;;;4.13;1.60;;;;;;;;;;5093975;28;20563;-64
2023/11/05 02:31:13;;;;;;;3.20;1.60;;;;;;;;;;5104235;28;20541;-65
2023/11/05 02:33:43;;;;;;;4.90;2.20;;;;;;;;;;5108064;28;20459;-64
2023/11/05 02:36:10;;;;;;;2.00;1.50;;;;;;;;;;5111621;28;20931;-64
2023/11/05 02:38:36;;;;;;;5.50;1.60;;;;;;;;;;5096305;28;20925;-64
2023/11/05 02:41:05;;;;;;;5.83;1.60;;;;;;;;;;5097963;28;20533;-66
2023/11/05 02:43:32;;;;;;;4.47;2.37;;;;;;;;;;5095398;28;20791;-64
2023/11/05 02:45:58;;;;;;;6.93;1.73;;;;;;;;;;5094111;28;20481;-65
2023/11/05 02:48:25;;;;;;;1.40;1.30;;;;;;;;;;5101474;28;20575;-64
2023/11/05 02:50:51;;;;;;;3.43;1.80;;;;;;;;;;5095135;28;20471;-65
2023/11/05 02:53:18;;;;;;;2.77;1.23;;;;;;;;;;5102071;28;20523;-64
2023/11/05 02:55:45;;;;;;;4.27;1.60;;;;;;;;;;5098838;28;20462;-64
2023/11/05 02:58:13;;;;;;;8.90;2.13;;;;;;;;;;5091475;28;20482;-64
2023/11/05 03:00:39;;;;;;;3.40;1.80;;;;;;;;;;5102146;28;20450;-64
2023/11/05 03:03:06;;;;;;;4.37;1.43;;;;;;;;;;5097379;28;20535;-65
2023/11/05 03:05:32;;;;;;;4.90;1.63;;;;;;;;;;5096705;28;20518;-65
2023/11/05 03:07:59;;;;;;;4.53;1.77;;;;;;;;;;5099045;28;20497;-64
2023/11/05 03:10:25;;;;;;;6.20;1.50;;;;;;;;;;5094642;28;20485;-64
2023/11/05 03:12:51;;;;;;;5.80;2.33;;;;;;;;;;5090723;28;20522;-65
2023/11/05 03:15:19;;;;;;;12.23;2.30;;;;;;;;;;5098876;28;20871;-64
2023/11/05 03:17:45;;;;;;;1.97;1.40;;;;;;;;;;5090569;28;20526;-65
2023/11/05 03:20:12;;;;;;;4.67;1.73;;;;;;;;;;5094811;28;20513;-64
2023/11/05 03:22:39;;;;;;;4.23;2.00;;;;;;;;;;5104597;28;20451;-65
2023/11/05 03:25:06;;;;;;;3.03;1.60;;;;;;;;;;5100038;28;20493;-64
2023/11/05 03:27:32;;;;;;;4.20;1.97;;;;;;;;;;5101589;28;20490;-65
2023/11/05 03:29:59;;;;;;;6.93;2.33;;;;;;;;;;5099618;28;20498;-65
2023/11/05 03:32:27;;;;;;;4.57;1.50;;;;;;;;;;5098206;28;20460;-65
2023/11/05 03:34:54;;;;;;;11.73;1.43;;;;;;;;;;5091779;28;20451;-65
2023/11/05 03:37:20;;;;;;;3.80;1.77;;;;;;;;;;5106970;28;20513;-65
2023/11/05 03:39:48;;;;;;;5.00;1.50;;;;;;;;;;5094591;28;20530;-65
2023/11/05 03:42:15;;;;;;;4.07;1.00;;;;;;;;;;5102222;28;20867;-65
2023/11/05 03:44:42;;;;;;;3.60;1.60;;;;;;;;;;5098066;28;20510;-64
2023/11/05 03:47:09;;;;;;;4.30;1.50;;;;;;;;;;5109134;28;20454;-65
2023/11/05 03:49:36;;;;;;;2.60;1.53;;;;;;;;;;5108476;28;20483;-64
2023/11/05 03:52:03;;;;;;;6.13;1.33;;;;;;;;;;5098782;28;20514;-64
2023/11/05 03:54:29;;;;;;;5.60;1.30;;;;;;;;;;5099074;28;20450;-65
2023/11/05 03:56:56;;;;;;;6.10;2.03;;;;;;;;;;5104024;28;20568;-64
2023/11/05 03:59:23;;;;;;;4.00;1.13;;;;;;;;;;5099531;28;21532;-64
2023/11/05 04:01:50;;;;;;;5.17;1.20;;;;;;;;;;5088721;28;20455;-65
2023/11/05 04:04:16;;;;;;;3.73;1.30;;;;;;;;;;5093807;28;21050;-64
2023/11/05 04:06:44;;;;;;;3.50;1.57;;;;;;;;;;5106988;28;20604;-64
2023/11/05 04:09:11;;;;;;;2.80;1.27;;;;;;;;;;5102055;28;20503;-65
2023/11/05 04:11:37;;;;;;;2.07;1.67;;;;;;;;;;5106360;28;20493;-65
2023/11/05 04:14:04;;;;;;;6.23;1.77;;;;;;;;;;5100005;28;20493;-64
2023/11/05 04:16:30;;;;;;;4.73;1.03;;;;;;;;;;5096970;28;20482;-64
2023/11/05 04:18:57;;;;;;;2.60;1.43;;;;;;;;;;5093112;28;20459;-65
2023/11/05 04:21:23;;;;;;;6.23;1.83;;;;;;;;;;5094441;28;20506;-65
2023/11/05 04:23:51;;;;;;;3.73;1.90;;;;;;;;;;5100186;28;20490;-65
2023/11/05 04:26:17;;;;;;;6.33;1.50;;;;;;;;;;5109470;28;20545;-64
2023/11/05 04:28:44;;;;;;;3.70;1.40;;;;;;;;;;5093275;28;20575;-65
2023/11/05 04:31:10;;;;;;;2.60;1.47;;;;;;;;;;5092796;28;20451;-65
2023/11/05 04:33:37;;;;;;;5.60;1.80;;;;;;;;;;5102831;28;20450;-65
2023/11/05 04:36:03;;;;;;;4.20;1.63;;;;;;;;;;5096928;28;20483;-65
2023/11/05 04:38:29;;;;;;;2.63;1.47;;;;;;;;;;5091722;28;20456;-65
2023/11/05 04:40:57;;;;;;;2.57;1.10;;;;;;;;;;5102120;28;21023;-65
2023/11/05 04:43:25;;;;;;;2.50;0.87;;;;;;;;;;5098105;28;20484;-64
2023/11/05 04:45:52;;;;;;;5.70;1.10;;;;;;;;;;5096743;28;20487;-66
2023/11/05 04:48:18;;;;;;;5.03;1.27;;;;;;;;;;5108755;28;20462;-65
2023/11/05 04:50:44;;;;;;;7.60;1.40;;;;;;;;;;5104987;28;20492;-65
2023/11/05 04:53:11;;;;;;;4.60;1.47;;;;;;;;;;5100195;28;20970;-65
2023/11/05 04:55:40;;;;;;;2.10;1.00;;;;;;;;;;5096489;28;20511;-65
2023/11/05 04:58:08;;;;;;;3.90;1.37;;;;;;;;;;5095981;28;21062;-65
2023/11/05 05:00:35;;;;;;;3.57;1.10;;;;;;;;;;5091658;28;20523;-64
2023/11/05 05:03:02;;;;;;;4.13;1.10;;;;;;;;;;5095280;28;20881;-65
2023/11/05 05:05:29;;;;;;;2.67;1.30;;;;;;;;;;5094449;28;20896;-64
2023/11/05 05:07:55;;;;;;;3.50;1.00;;;;;;;;;;5106059;28;20477;-64
2023/11/05 05:10:21;;;;;;;2.10;1.03;;;;;;;;;;5102603;28;20505;-65
2023/11/05 05:12:48;;;;;;;1.30;1.00;;;;;;;;;;5106918;28;20523;-65
2023/11/05 05:15:16;;;;;;;2.07;1.30;;;;;;;;;;5096164;28;20510;-65
2023/11/05 05:17:42;;;;;;;1.07;0.97;;;;;;;;;;5105204;28;20514;-65
2023/11/05 05:20:09;;;;;;;2.80;1.20;;;;;;;;;;5090825;28;20532;-66
2023/11/05 05:22:35;;;;;;;3.53;0.80;;;;;;;;;;5095299;28;20451;-64
2023/11/05 05:25:01;;;;;;;1.17;1.00;;;;;;;;;;5097884;28;20573;-66
2023/11/05 05:27:28;;;;;;;2.97;0.80;;;;;;;;;;5105387;28;20531;-66
2023/11/05 05:29:55;;;;;;;0.73;0.70;;;;;;;;;;5098865;28;20542;-65
2023/11/05 05:32:22;;;;;;;1.77;1.03;;;;;;;;;;5097701;28;20823;-66
2023/11/05 05:34:49;;;;;;;0.90;0.90;;;;;;;;;;5101684;28;20547;-66
2023/11/05 05:37:16;;;;;;;0.70;0.70;;;;;;;;;;5095615;28;20454;-66
2023/11/05 05:39:42;;;;;;;2.13;1.00;;;;;;;;;;5101314;28;20455;-66
2023/11/05 05:42:09;;;;;;;2.17;0.93;;;;;;;;;;5105964;28;20518;-66
2023/11/05 05:44:35;;;;;;;1.17;0.80;;;;;;;;;;5105178;28;20496;-67
2023/11/05 05:47:03;;;;;;;2.50;1.63;;;;;;;;;;5101158;28;20972;-66
2023/11/05 05:49:30;;;;;;;0.90;0.70;;;;;;;;;;5093867;28;20514;-66
2023/11/05 05:51:57;;;;;;;0.90;0.70;;;;;;;;;;5098075;28;20474;-67
2023/11/05 05:54:24;;;;;;;1.63;1.20;;;;;;;;;;5099321;28;20462;-66
2023/11/05 05:56:50;;;;;;;1.70;0.83;;;;;;;;;;5100043;28;20474;-65
2023/11/05 05:59:17;;;;;;;0.80;0.70;;;;;;;;;;5109336;28;20518;-66
2023/11/05 06:01:43;;;;;;;0.97;0.80;;;;;;;;;;5096180;28;20530;-67
2023/11/05 06:04:09;;;;;;;0.90;0.70;;;;;;;;;;5105510;28;20557;-66
2023/11/05 06:06:37;;;;;;;0.60;0.60;;;;;;;;;;5099924;28;20902;-65
2023/11/05 06:09:06;;;;;;;2.50;0.80;;;;;;;;;;5093025;28;20526;-65
2023/11/05 06:11:32;;;;;;;0.53;0.50;;;;;;;;;;5105061;28;20435;-65
2023/11/05 06:13:58;;;;;;;0.83;0.67;;;;;;;;;;5101941;28;20470;-65
2023/11/05 06:16:25;;;;;;;0.93;0.73;;;;;;;;;;5098204;28;20550;-65
2023/11/05 06:18:51;;;;;;;3.20;0.70;;;;;;;;;;5094577;28;20459;-64
2023/11/05 06:21:18;;;;;;;2.40;0.90;;;;;;;;;;5105478;28;20511;-67
2023/11/05 06:23:46;;;;;;;1.20;1.10;;;;;;;;;;5104490;28;20455;-65
2023/11/05 06:26:12;;;;;;;1.50;0.60;;;;;;;;;;5104977;28;20541;-66
2023/11/05 06:28:39;;;;;;;1.10;0.63;;;;;;;;;;5110440;28;20490;-66
2023/11/05 06:31:05;;;;;;;0.87;0.50;;;;;;;;;;5104458;28;21033;-65
2023/11/05 06:33:33;;;;;;;1.10;0.90;;;;;;;;;;5108001;28;20593;-66
2023/11/05 06:36:00;;;;;;;1.57;1.47;;;;;;;;;;5099231;28;20460;-67
2023/11/05 06:38:27;;;;;;;0.67;0.63;;;;;;;;;;5098710;28;20454;-67
2023/11/05 06:40:55;;;;;;;1.13;0.80;;;;;;;;;;5100732;28;20480;-66
2023/11/05 06:43:21;;;;;;;1.07;0.90;;;;;;;;;;5093432;28;20519;-66
2023/11/05 06:45:48;;;;;;;1.10;0.70;;;;;;;;;;5111912;28;20442;-67
2023/11/05 06:48:14;;;;;;;1.23;0.80;;;;;;;;;;5106113;28;20485;-67
2023/11/05 06:50:40;;;;;;;1.87;0.90;;;;;;;;;;5110092;28;20551;-66
2023/11/05 06:53:07;;;;;;;1.07;0.70;;;;;;;;;;5098773;28;20497;-66
2023/11/05 06:55:33;;;;;;;5.23;0.87;;;;;;;;;;5104798;28;20962;-66
2023/11/05 06:58:01;;;;;;;1.80;0.70;;;;;;;;;;5110421;28;20458;-66
2023/11/05 07:00:27;;;;;;;1.87;0.97;;;;;;;;;;5102753;28;20869;-65
2023/11/05 07:02:54;;;;;;;0.40;0.40;;;;;;;;;;5105844;28;20451;-66
2023/11/05 07:05:20;;;;;;;0.90;0.70;;;;;;;;;;5099803;28;20466;-65
2023/11/05 07:07:46;;;;;;;1.17;0.63;;;;;;;;;;5104086;28;20472;-66
2023/11/05 07:10:13;;;;;;;0.83;0.77;;;;;;;;;;5098464;28;20500;-66
2023/11/05 07:12:41;;;;;;;0.97;0.80;;;;;;;;;;5100408;28;20985;-66
2023/11/05 07:15:10;;;;;;;0.80;0.70;;;;;;;;;;5098934;28;20451;-66
2023/11/05 07:17:37;;;;;;;1.70;0.90;;;;;;;;;;5102515;28;20519;-65
2023/11/05 07:20:04;;;;;;;1.30;0.50;;;;;;;;;;5107582;28;20458;-66
2023/11/05 07:22:31;;;;;;;0.73;0.73;;;;;;;;;;5099304;28;20967;-65
2023/11/05 07:24:57;;;;;;;0.70;0.50;;;;;;;;;;5100415;28;20581;-66
2023/11/05 07:27:23;;;;;;;0.80;0.70;;;;;;;;;;5106791;28;20557;-65
2023/11/05 07:29:50;;;;;;;1.00;0.80;;;;;;;;;;5102552;28;20563;-65
2023/11/05 07:32:18;;;;;;;1.07;0.80;;;;;;;;;;5107290;28;20482;-65
2023/11/05 07:34:44;;;;;;;1.50;0.60;;;;;;;;;;5104420;28;20483;-66
2023/11/05 07:37:10;;;;;;;0.80;0.60;;;;;;;;;;5111064;28;20574;-66
2023/11/05 07:39:37;;;;;;;1.17;0.73;;;;;;;;;;5097813;28;21109;-66
2023/11/05 07:42:03;;;;;;;0.90;0.80;;;;;;;;;;5116356;28;20434;-66
2023/11/05 07:44:30;;;;;;;0.93;0.60;;;;;;;;;;5103666;28;20999;-66
2023/11/05 07:46:56;;;;;;;0.83;0.67;;;;;;;;;;5098614;28;20435;-65
2023/11/05 07:49:24;;;;;;;2.87;0.70;;;;;;;;;;5097116;28;20733;-65
2023/11/05 07:51:50;;;;;;;1.40;1.27;;;;;;;;;;5092492;28;20451;-66
2023/11/05 07:54:17;;;;;;;1.53;1.10;;;;;;;;;;5104843;28;20454;-65
2023/11/05 07:56:44;;;;;;;3.63;1.07;;;;;;;;;;5095237;28;20879;-65
2023/11/05 07:59:11;;;;;;;0.97;0.87;;;;;;;;;;5087493;28;20489;-65
2023/11/05 08:01:37;;;;;;;1.43;1.07;;;;;;;;;;5103513;28;20466;-65
2023/11/05 08:04:04;;;;;;;1.03;0.90;;;;;;;;;;5111756;28;20550;-66
2023/11/05 08:06:32;;;;;;;0.90;0.90;;;;;;;;;;5102221;28;20447;-65
2023/11/05 08:08:58;;;;;;;0.80;0.70;;;;;;;;;;5102668;28;20537;-65
2023/11/05 08:11:25;;;;;;;3.23;1.30;;;;;;;;;;5104236;28;20464;-66
2023/11/05 08:13:51;;;;;;;2.17;0.80;;;;;;;;;;5095292;28;20477;-65
2023/11/05 08:16:17;;;;;;;1.60;1.00;;;;;;;;;;5094341;28;20518;-65
2023/11/05 08:18:44;;;;;;;3.33;1.60;;;;;;;;;;5099614;28;20534;-66
2023/11/05 08:21:10;;;;;;;1.27;0.73;;;;;;;;;;5098366;28;21083;-65
2023/11/05 08:23:38;;;;;;;1.47;0.90;;;;;;;;;;5110810;28;20466;-64
2023/11/05 08:26:05;;;;;;;2.10;0.73;;;;;;;;;;5107155;28;20509;-64
2023/11/05 08:28:31;;;;;;;1.73;1.10;;;;;;;;;;5104043;28;20455;-64
2023/11/05 08:30:57;;;;;;;1.40;1.30;;;;;;;;;;5103306;28;21205;-66
2023/11/05 08:33:24;;;;;;;2.03;1.93;;;;;;;;;;5097746;28;20457;-66
2023/11/05 08:35:51;;;;;;;2.03;1.93;;;;;;;;;;5100914;28;20989;-66
2023/11/05 08:38:17;;;;;;;1.80;1.70;;;;;;;;;;5096923;28;20530;-66
2023/11/05 08:40:46;;;;;;;1.70;1.60;;;;;;;;;;5104949;28;20596;-66
2023/11/05 08:43:12;;;;;;;1.60;1.50;;;;;;;;;;5104834;28;20572;-66
2023/11/05 08:45:39;;;;;;;1.70;1.60;;;;;;;;;;5098908;28;20456;-66
2023/11/05 08:48:06;;;;;;;2.13;1.50;;;;;;;;;;5100356;28;20530;-66
2023/11/05 08:50:32;;;;;;;1.67;1.30;;;;;;;;;;5113758;28;20512;-66
2023/11/05 08:52:59;;;;;;;2.30;1.73;;;;;;;;;;5100603;28;20471;-66
2023/11/05 08:55:28;;;;;;;1.50;1.40;;;;;;;;;;5095960;28;20492;-66
2023/11/05 08:57:57;;;;;;;1.50;1.40;;;;;;;;;;5093751;28;20459;-66
2023/11/05 09:00:24;;;;;;;1.23;1.23;;;;;;;;;;5103491;28;20442;-65
2023/11/05 09:02:51;;;;;;;1.87;1.67;;;;;;;;;;5098167;28;20470;-65
2023/11/05 09:05:18;;;;;;;1.43;1.33;;;;;;;;;;5106608;28;20503;-65
2023/11/05 09:07:44;;;;;;;1.10;1.00;;;;;;;;;;5098660;28;20473;-65
2023/11/05 09:10:12;;;;;;;1.27;1.17;;;;;;;;;;5108889;28;20514;-66
2023/11/05 09:12:38;;;;;;;1.20;1.10;;;;;;;;;;5096143;28;20459;-65
2023/11/05 09:15:07;;;;;;;1.97;1.20;;;;;;;;;;5113551;28;20976;-66
2023/11/05 09:17:33;;;;;;;1.60;1.50;;;;;;;;;;5105336;28;20493;-66
2023/11/05 09:20:00;;;;;;;3.57;1.30;;;;;;;;;;5108616;28;20466;-66
2023/11/05 09:22:26;;;;;;;1.83;1.03;;;;;;;;;;5098618;28;20490;-64
2023/11/05 09:24:53;;;;;;;1.83;1.73;;;;;;;;;;5115758;28;20520;-64
2023/11/05 09:27:19;;;;;;;1.30;1.20;;;;;;;;;;5097902;28;20459;-64
2023/11/05 09:29:45;;;;;;;1.40;1.30;;;;;;;;;;5099358;28;20935;-64
2023/11/05 09:32:13;;;;;;;2.30;1.40;;;;;;;;;;5101022;28;20469;-64
2023/11/05 09:34:40;;;;;;;1.50;1.40;;;;;;;;;;5089043;28;20451;-67
2023/11/05 09:37:07;;;;;;;1.53;1.43;;;;;;;;;;5104204;28;20458;-67
2023/11/05 09:39:33;;;;;;;1.30;1.20;;;;;;;;;;5085645;28;20466;-65
2023/11/05 09:42:00;;;;;;;1.53;1.43;;;;;;;;;;5094088;28;20473;-65
2023/11/05 09:44:26;;;;;;;1.53;1.43;;;;;;;;;;5091381;28;20471;-65
2023/11/05 09:46:53;;;;;;;1.63;1.30;;;;;;;;;;5093745;28;20573;-66
2023/11/05 09:49:21;;;;;;;1.70;1.47;;;;;;;;;;5097196;28;20455;-66
2023/11/05 09:51:48;;;;;;;1.60;1.50;;;;;;;;;;5099663;28;20507;-65
2023/11/05 09:54:15;;;;;;;1.77;1.47;;;;;;;;;;5103263;28;20453;-66
2023/11/05 09:56:41;;;;;;;1.60;1.30;;;;;;;;;;5106284;28;20470;-66
2023/11/05 09:59:08;;;;;;;1.70;1.60;;;;;;;;;;5101466;28;20552;-66
2023/11/05 10:01:35;;;;;;;1.87;1.77;;;;;;;;;;5095901;28;20478;-63
2023/11/05 10:04:02;;;;;;;1.87;1.77;;;;;;;;;;5094644;28;20459;-64
2023/11/05 10:06:29;;;;;;;2.13;2.03;;;;;;;;;;5095445;28;20503;-64
2023/11/05 10:08:56;;;;;;;1.90;1.80;;;;;;;;;;5091929;28;20514;-64
2023/11/05 10:11:24;;;;;;;2.10;2.00;;;;;;;;;;5089355;28;20546;-63
2023/11/05 10:13:51;;;;;;;1.97;1.87;;;;;;;;;;5098981;28;20447;-63
2023/11/05 10:16:18;;;;;;;2.00;1.90;;;;;;;;;;5110479;28;20450;-63
2023/11/05 10:18:45;;;;;;;2.00;1.90;;;;;;;;;;5100143;28;20459;-63
2023/11/05 10:21:12;;;;;;;2.00;1.90;;;;;;;;;;5098267;28;20473;-64
2023/11/05 10:23:50;;;;;;;2.13;2.03;;;;;;;;;;5103336;28;20535;-64
2023/11/05 10:26:26;;;;;;;2.23;1.90;;;;;;;;;;5091523;28;20860;-70
2023/11/05 10:28:52;;;;;;;4.90;2.17;;;;;;;;;;5104806;28;20489;-70
2023/11/05 10:31:19;;;;;;;2.00;1.90;;;;;;;;;;5096789;28;20523;-69
2023/11/05 10:33:45;;;;;;;2.70;2.20;;;;;;;;;;5107094;28;20489;-69
2023/11/05 10:36:12;;;;;;;2.27;2.07;;;;;;;;;;5107623;28;20503;-69
2023/11/05 10:38:38;;;;;;;1.87;1.77;;;;;;;;;;5097116;28;20480;-68
2023/11/05 10:41:06;;;;;;;3.07;1.73;;;;;;;;;;5099902;28;20881;-70
2023/11/05 10:43:33;;;;;;;1.90;1.77;;;;;;;;;;5096382;28;20485;-70
2023/11/05 10:46:00;;;;;;;1.57;1.47;;;;;;;;;;5092701;28;20959;-70
2023/11/05 10:48:28;;;;;;;3.07;1.90;;;;;;;;;;5098237;28;20477;-70
2023/11/05 10:50:56;;;;;;;3.60;1.90;;;;;;;;;;5099605;28;20471;-70
2023/11/05 10:53:23;;;;;;;3.50;1.77;;;;;;;;;;5098213;28;20467;-69
2023/11/05 10:55:49;;;;;;;1.67;1.57;;;;;;;;;;5102727;28;20939;-69
2023/11/05 10:58:21;;;;;;;1.97;1.87;;;;;;;;;;5100128;28;20542;-69
2023/11/05 11:00:51;;;;;;;2.43;1.77;;;;;;;;;;5094585;28;20473;-69
2023/11/05 11:03:18;;;;;;;1.60;1.50;;;;;;;;;;5088355;28;20462;-69
2023/11/05 11:05:58;;;;;;;1.63;1.53;;;;;;;;;;5104446;28;20459;-69
2023/11/05 11:08:27;;;;;;;2.40;1.60;;;;;;;;;;5093014;28;20454;-69
2023/11/05 11:11:05;;;;;;;2.77;2.03;;;;;;;;;;5097309;28;20470;-69
2023/11/05 11:13:33;;;;;;;4.10;2.10;;;;;;;;;;5101866;28;20446;-69
2023/11/05 11:16:01;;;;;;;1.77;1.67;;;;;;;;;;5092514;28;21023;-69
2023/11/05 11:18:30;;;;;;;1.70;1.60;;;;;;;;;;5103038;28;20459;-69
2023/11/05 11:20:57;;;;;;;1.77;1.50;;;;;;;;;;5096027;28;20443;-69
2023/11/05 11:23:27;;;;;;;3.13;3.03;;;;;;;;;;5095070;28;20489;-69
2023/11/05 11:25:57;;;;;;;2.73;2.63;;;;;;;;;;5091964;28;20585;-69
2023/11/05 11:28:24;;;;;;;4.70;1.73;;;;;;;;;;5104401;28;20790;-69
2023/11/05 11:30:52;;;;;;;2.73;2.00;;;;;;;;;;5101978;28;20467;-69
2023/11/05 11:33:20;;;;;;;3.37;1.83;;;;;;;;;;5096986;28;20474;-69
2023/11/05 11:35:46;;;;;;;1.80;1.70;;;;;;;;;;5089691;28;20773;-67
2023/11/05 11:38:13;;;;;;;2.70;1.77;;;;;;;;;;5095409;28;20479;-70
2023/11/05 11:40:39;;;;;;;3.67;1.70;;;;;;;;;;5090535;28;20523;-67
2023/11/05 11:43:06;;;;;;;2.17;1.97;;;;;;;;;;5090799;28;20517;-67
2023/11/05 11:45:33;;;;;;;2.63;1.80;;;;;;;;;;5098170;28;20523;-67
2023/11/05 11:48:07;;;;;;;2.30;2.20;;;;;;;;;;5089124;28;20512;-69
2023/11/05 11:50:33;;;;;;;2.90;2.00;;;;;;;;;;5085209;28;20474;-69
2023/11/05 11:53:00;;;;;;;3.50;2.10;;;;;;;;;;5099535;28;20490;-69
2023/11/05 11:55:26;;;;;;;2.60;2.10;;;;;;;;;;5092075;28;20439;-67
2023/11/05 11:57:53;;;;;;;2.43;2.17;;;;;;;;;;5096287;28;20455;-67
2023/11/05 12:00:20;;;;;;;3.53;2.23;;;;;;;;;;5097226;28;20670;-68
2023/11/05 12:02:47;;;;;;;2.03;1.93;;;;;;;;;;5097058;28;20461;-69
2023/11/05 12:05:15;;;;;;;2.57;2.07;;;;;;;;;;5100867;28;20495;-69
2023/11/05 12:07:45;;;;;;;2.23;2.03;;;;;;;;;;5099751;28;20477;-68
2023/11/05 12:10:13;;;;;;;1.73;1.63;;;;;;;;;;5097560;28;21156;-68
2023/11/05 12:12:41;;;;;;;2.00;1.90;;;;;;;;;;5103601;28;20566;-68
2023/11/05 12:15:11;;;;;;;2.10;1.90;;;;;;;;;;5097906;28;20524;-68
2023/11/05 12:17:37;;;;;;;3.20;1.93;;;;;;;;;;5107791;28;20542;-68
2023/11/05 12:20:04;;;;;;;2.17;1.87;;;;;;;;;;5106937;28;20461;-67
2023/11/05 12:22:32;;;;;;;2.30;2.00;;;;;;;;;;5095167;28;20989;-66
2023/11/05 12:25:00;;;;;;;3.60;2.53;;;;;;;;;;5094596;28;20486;-66
2023/11/05 12:27:27;;;;;;;3.47;2.23;;;;;;;;;;5108309;28;20471;-68
2023/11/05 12:29:53;;;;;;;2.63;2.43;;;;;;;;;;5105957;28;20477;-68
2023/11/05 12:32:30;;;;;;;2.90;2.00;;;;;;;;;;5108068;28;20493;-68
2023/11/05 12:34:57;;;;;;;4.00;2.40;;;;;;;;;;5105126;28;20457;-69
2023/11/05 12:37:23;;;;;;;3.13;2.27;;;;;;;;;;5103857;28;20467;-73
2023/11/05 12:39:51;;;;;;;2.70;2.50;;;;;;;;;;5108463;28;20490;-72
2023/11/05 12:42:18;;;;;;;3.97;3.67;;;;;;;;;;5110480;28;20520;-74
2023/11/05 12:44:44;;;;;;;2.93;1.93;;;;;;;;;;5103933;28;21038;-70
2023/11/05 12:47:11;;;;;;;2.13;1.90;;;;;;;;;;5100947;28;20508;-71
2023/11/05 12:49:38;;;;;;;1.67;1.57;;;;;;;;;;5095354;28;20490;-70
2023/11/05 12:52:05;;;;;;;2.00;1.90;;;;;;;;;;5104298;28;20796;-71
2023/11/05 12:54:32;;;;;;;2.63;2.37;;;;;;;;;;5105910;28;20446;-70
2023/11/05 12:57:00;;;;;;;2.60;2.40;;;;;;;;;;5097984;28;20527;-70
2023/11/05 12:59:27;;;;;;;2.50;2.27;;;;;;;;;;5093302;28;20857;-68
2023/11/05 13:01:54;;;;;;;3.10;2.30;;;;;;;;;;5091578;28;20470;-69
2023/11/05 13:04:20;;;;;;;3.40;2.37;;;;;;;;;;5095708;28;20931;-72
2023/11/05 13:06:46;;;;;;;2.30;2.07;;;;;;;;;;5096977;28;20466;-70
2023/11/05 13:09:15;;;;;;;4.50;2.50;;;;;;;;;;5101587;28;20451;-71
2023/11/05 13:11:41;;;;;;;4.70;3.20;;;;;;;;;;5096996;28;20482;-71
2023/11/05 13:14:09;;;;;;;3.30;2.80;;;;;;;;;;5094679;28;20489;-71
2023/11/05 13:16:36;;;;;;;3.93;2.33;;;;;;;;;;5092374;28;20972;-68
2023/11/05 13:19:03;;;;;;;2.73;2.20;;;;;;;;;;5089209;28;20462;-68
2023/11/05 13:21:30;;;;;;;3.80;2.70;;;;;;;;;;5098031;28;20601;-68
2023/11/05 13:23:56;;;;;;;3.10;2.30;;;;;;;;;;5101193;28;20535;-68
2023/11/05 13:26:22;;;;;;;2.93;2.67;;;;;;;;;;5093162;28;20531;-68
2023/11/05 13:28:49;;;;;;;4.40;2.77;;;;;;;;;;5093993;28;20477;-71
2023/11/05 13:31:18;;;;;;;2.90;2.70;;;;;;;;;;5096162;28;20475;-72
2023/11/05 13:33:44;;;;;;;3.70;2.97;;;;;;;;;;5093805;28;20514;-70
2023/11/05 13:36:11;;;;;;;3.50;2.47;;;;;;;;;;5094412;28;20460;-71
2023/11/05 13:38:38;;;;;;;3.77;3.40;;;;;;;;;;5098063;28;20538;-70
2023/11/05 13:41:05;;;;;;;2.90;2.47;;;;;;;;;;5094488;28;20451;-71
2023/11/05 13:43:33;;;;;;;3.77;2.83;;;;;;;;;;5091652;28;21001;-72
2023/11/05 13:46:01;;;;;;;2.83;2.57;;;;;;;;;;5088577;28;20464;-72
2023/11/05 13:48:28;;;;;;;2.73;2.53;;;;;;;;;;5092401;28;20482;-73
2023/11/05 13:50:55;;;;;;;2.60;2.40;;;;;;;;;;5090347;28;20439;-74
2023/11/05 13:53:23;;;;;;;5.03;2.70;;;;;;;;;;5095205;28;20505;-74
2023/11/05 13:55:50;;;;;;;3.20;2.70;;;;;;;;;;5100843;28;20474;-72
2023/11/05 13:58:19;;;;;;;3.87;2.70;;;;;;;;;;5087706;28;20761;-72
2023/11/05 14:00:45;;;;;;;4.37;3.47;;;;;;;;;;5087480;28;20459;-69
2023/11/05 14:03:11;;;;;;;3.67;2.20;;;;;;;;;;5095492;28;20474;-71
2023/11/05 14:05:40;;;;;;;3.57;2.70;;;;;;;;;;5095015;28;20490;-71
2023/11/05 14:08:07;;;;;;;3.80;2.10;;;;;;;;;;5096899;28;20979;-71
2023/11/05 14:10:34;;;;;;;2.77;2.40;;;;;;;;;;5091966;28;20483;-71
2023/11/05 14:13:01;;;;;;;2.57;2.17;;;;;;;;;;5089051;28;20472;-72
2023/11/05 14:15:27;;;;;;;2.03;1.90;;;;;;;;;;5095060;28;20447;-72
2023/11/05 14:17:54;;;;;;;2.30;2.10;;;;;;;;;;5089454;28;20998;-71
2023/11/05 14:20:21;;;;;;;3.47;2.87;;;;;;;;;;5094691;28;20455;-71
2023/11/05 14:22:49;;;;;;;3.23;2.20;;;;;;;;;;5096054;28;20458;-71
2023/11/05 14:25:16;;;;;;;3.47;2.30;;;;;;;;;;5089784;28;20491;-72
2023/11/05 14:27:42;;;;;;;3.27;2.97;;;;;;;;;;5091842;28;20940;-71
2023/11/05 14:30:10;;;;;;;7.90;3.47;;;;;;;;;;5095410;28;20451;-71
2023/11/05 14:32:36;;;;;;;2.87;2.60;;;;;;;;;;5093148;28;20541;-71
2023/11/05 14:35:08;;;;;;;4.33;2.80;;;;;;;;;;5096905;28;20460;-71
2023/11/05 14:37:35;;;;;;;3.67;3.00;;;;;;;;;;5098741;28;20504;-72
2023/11/05 14:40:03;;;;;;;3.93;2.83;;;;;;;;;;5088407;28;20529;-71
2023/11/05 14:42:29;;;;;;;3.40;2.70;;;;;;;;;;5097298;28;20487;-72